createdAt,value
2018-02-05T00:00:10.783Z,1021.55
2018-02-05T00:00:51.390Z,1021.52
2018-02-05T00:01:31.937Z,1021.55
2018-02-05T00:02:12.549Z,1021.54
2018-02-05T00:02:53.131Z,1021.57
2018-02-05T00:03:33.821Z,1021.58
2018-02-05T00:04:14.287Z,1021.54
2018-02-05T00:04:54.829Z,1021.6
2018-02-05T00:05:35.414Z,1021.56
2018-02-05T00:06:15.961Z,1021.57
2018-02-05T00:06:56.550Z,1021.57
2018-02-05T00:07:37.095Z,1021.58
2018-02-05T00:08:17.691Z,1021.56
2018-02-05T00:08:58.216Z,1021.58
2018-02-05T00:09:38.798Z,1021.57
2018-02-05T00:10:20.133Z,1021.6
2018-02-05T00:11:00.188Z,1021.57
2018-02-05T00:11:40.740Z,1021.56
2018-02-05T00:12:21.288Z,1021.57
2018-02-05T00:13:01.832Z,1021.6
2018-02-05T00:13:42.389Z,1021.59
2018-02-05T00:14:23.017Z,1021.57
2018-02-05T00:15:03.584Z,1021.58
2018-02-05T00:15:44.172Z,1021.53
2018-02-05T00:16:24.810Z,1021.54
2018-02-05T00:17:05.324Z,1021.57
2018-02-05T00:17:45.850Z,1021.58
2018-02-05T00:18:26.481Z,1021.59
2018-02-05T00:19:07.082Z,1021.58
2018-02-05T00:19:47.707Z,1021.61
2018-02-05T00:20:28.335Z,1021.56
2018-02-05T00:21:08.861Z,1021.56
2018-02-05T00:21:49.420Z,1021.54
2018-02-05T00:22:30.020Z,1021.53
2018-02-05T00:23:10.675Z,1021.53
2018-02-05T00:23:51.198Z,1021.5
2018-02-05T00:24:31.780Z,1021.53
2018-02-05T00:25:12.364Z,1021.51
2018-02-05T00:25:52.920Z,1021.53
2018-02-05T00:26:33.516Z,1021.54
2018-02-05T00:27:14.064Z,1021.58
2018-02-05T00:27:54.646Z,1021.58
2018-02-05T00:28:35.249Z,1021.63
2018-02-05T00:29:16.042Z,1021.61
2018-02-05T00:29:56.610Z,1021.64
2018-02-05T00:30:37.207Z,1021.62
2018-02-05T00:31:17.778Z,1021.63
2018-02-05T00:31:58.349Z,1021.61
2018-02-05T00:32:38.908Z,1021.64
2018-02-05T00:33:19.459Z,1021.62
2018-02-05T00:34:00.027Z,1021.65
2018-02-05T00:34:40.567Z,1021.63
2018-02-05T00:35:21.110Z,1021.65
2018-02-05T00:36:01.648Z,1021.64
2018-02-05T00:36:42.425Z,1021.67
2018-02-05T00:37:23.049Z,1021.65
2018-02-05T00:38:03.615Z,1021.66
2018-02-05T00:38:44.185Z,1021.68
2018-02-05T00:39:24.785Z,1021.66
2018-02-05T00:40:05.381Z,1021.61
2018-02-05T00:40:45.922Z,1021.65
2018-02-05T00:41:26.506Z,1021.61
2018-02-05T00:42:07.093Z,1021.67
2018-02-05T00:42:47.656Z,1021.65
2018-02-05T00:43:28.253Z,1021.68
2018-02-05T00:44:08.821Z,1021.73
2018-02-05T00:44:49.437Z,1021.73
2018-02-05T00:45:30.045Z,1021.75
2018-02-05T00:46:10.598Z,1021.74
2018-02-05T00:46:51.155Z,1021.79
2018-02-05T00:47:31.700Z,1021.78
2018-02-05T00:48:12.285Z,1021.78
2018-02-05T00:48:52.847Z,1021.8
2018-02-05T00:49:33.432Z,1021.81
2018-02-05T00:50:13.985Z,1021.81
2018-02-05T00:50:54.581Z,1021.8
2018-02-05T00:51:35.129Z,1021.85
2018-02-05T00:52:15.683Z,1021.85
2018-02-05T00:52:56.262Z,1021.89
2018-02-05T00:53:36.924Z,1021.9
2018-02-05T00:54:17.518Z,1021.87
2018-02-05T00:54:58.065Z,1021.9
2018-02-05T00:55:38.607Z,1021.89
2018-02-05T00:56:19.143Z,1021.92
2018-02-05T00:56:59.752Z,1021.92
2018-02-05T00:57:40.256Z,1021.92
2018-02-05T00:58:20.827Z,1021.93
2018-02-05T00:59:01.385Z,1021.93
2018-02-05T00:59:41.985Z,1021.9
2018-02-05T01:00:22.629Z,1021.91
2018-02-05T01:01:03.219Z,1021.88
2018-02-05T01:01:43.784Z,1021.88
2018-02-05T01:02:24.335Z,1021.9
2018-02-05T01:03:04.861Z,1021.98
2018-02-05T01:03:45.432Z,1021.99
2018-02-05T01:04:26.004Z,1021.97
2018-02-05T01:05:06.574Z,1021.94
2018-02-05T01:05:47.128Z,1021.97
2018-02-05T01:06:27.726Z,1021.94
2018-02-05T01:07:08.334Z,1021.95
2018-02-05T01:07:55.835Z,1021.99
2018-02-05T01:08:36.450Z,1021.98
2018-02-05T01:09:16.972Z,1022.01
2018-02-05T01:09:57.576Z,1022.03
2018-02-05T01:10:38.194Z,1022.02
2018-02-05T01:11:18.763Z,1022.06
2018-02-05T01:11:59.368Z,1022.03
2018-02-05T01:12:39.921Z,1022.07
2018-02-05T01:13:20.498Z,1022.06
2018-02-05T01:14:01.067Z,1022.1
2018-02-05T01:14:41.604Z,1022.06
2018-02-05T01:15:22.147Z,1022.09
2018-02-05T01:16:02.711Z,1022.1
2018-02-05T01:16:43.249Z,1022.08
2018-02-05T01:17:23.840Z,1022.11
2018-02-05T01:18:04.400Z,1022.14
2018-02-05T01:18:45.010Z,1022.13
2018-02-05T01:19:25.567Z,1022.13
2018-02-05T01:20:06.140Z,1022.13
2018-02-05T01:20:46.715Z,1022.12
2018-02-05T01:21:27.274Z,1022.13
2018-02-05T01:22:07.885Z,1022.09
2018-02-05T01:22:48.413Z,1022.12
2018-02-05T01:23:28.966Z,1022.1
2018-02-05T01:24:09.538Z,1022.08
2018-02-05T01:24:50.108Z,1022.12
2018-02-05T01:25:30.667Z,1022.1
2018-02-05T01:26:11.259Z,1022.07
2018-02-05T01:26:51.801Z,1022.06
2018-02-05T01:27:32.405Z,1022.03
2018-02-05T01:28:13.011Z,1022.08
2018-02-05T01:28:53.571Z,1022.06
2018-02-05T01:29:34.133Z,1022.05
2018-02-05T01:30:14.660Z,1022.03
2018-02-05T01:30:55.242Z,1022.06
2018-02-05T01:31:35.827Z,1022.05
2018-02-05T01:32:16.424Z,1022.07
2018-02-05T01:32:56.995Z,1022.08
2018-02-05T01:33:37.542Z,1022.1
2018-02-05T01:34:18.163Z,1022.11
2018-02-05T01:34:58.780Z,1022.06
2018-02-05T01:35:39.381Z,1022.09
2018-02-05T01:36:19.956Z,1022.12
2018-02-05T01:37:00.581Z,1022.1
2018-02-05T01:37:41.153Z,1022.11
2018-02-05T01:38:21.753Z,1022.13
2018-02-05T01:39:02.418Z,1022.11
2018-02-05T01:39:42.936Z,1022.11
2018-02-05T01:40:23.516Z,1022.12
2018-02-05T01:41:04.087Z,1022.11
2018-02-05T01:41:44.663Z,1022.11
2018-02-05T01:42:25.195Z,1022.1
2018-02-05T01:43:05.737Z,1022.1
2018-02-05T01:43:46.292Z,1022.12
2018-02-05T01:44:26.867Z,1022.14
2018-02-05T01:45:07.416Z,1022.12
2018-02-05T01:45:48.011Z,1022.08
2018-02-05T01:46:28.555Z,1022.17
2018-02-05T01:47:09.108Z,1022.12
2018-02-05T01:47:49.661Z,1022.16
2018-02-05T01:48:30.226Z,1022.15
2018-02-05T01:49:10.791Z,1022.18
2018-02-05T01:49:51.367Z,1022.24
2018-02-05T01:50:31.895Z,1022.19
2018-02-05T01:51:12.476Z,1022.24
2018-02-05T01:51:53.038Z,1022.25
2018-02-05T01:52:33.638Z,1022.24
2018-02-05T01:53:14.201Z,1022.23
2018-02-05T01:53:54.772Z,1022.27
2018-02-05T01:54:35.296Z,1022.29
2018-02-05T01:55:15.876Z,1022.24
2018-02-05T01:55:56.412Z,1022.29
2018-02-05T01:56:37.001Z,1022.28
2018-02-05T01:57:17.610Z,1022.29
2018-02-05T01:57:58.168Z,1022.29
2018-02-05T01:58:38.754Z,1022.33
2018-02-05T01:59:19.296Z,1022.32
2018-02-05T01:59:59.864Z,1022.3
2018-02-05T02:00:40.439Z,1022.3
2018-02-05T02:01:21.019Z,1022.32
2018-02-05T02:02:01.570Z,1022.29
2018-02-05T02:02:42.142Z,1022.28
2018-02-05T02:03:22.695Z,1022.28
2018-02-05T02:04:03.285Z,1022.26
2018-02-05T02:04:43.877Z,1022.26
2018-02-05T02:05:24.458Z,1022.28
2018-02-05T02:06:05.000Z,1022.24
2018-02-05T02:06:45.662Z,1022.21
2018-02-05T02:07:26.240Z,1022.24
2018-02-05T02:08:06.808Z,1022.23
2018-02-05T02:08:47.417Z,1022.23
2018-02-05T02:09:27.954Z,1022.21
2018-02-05T02:10:08.549Z,1022.26
2018-02-05T02:10:49.116Z,1022.26
2018-02-05T02:11:29.678Z,1022.24
2018-02-05T02:12:10.230Z,1022.23
2018-02-05T02:12:50.759Z,1022.26
2018-02-05T02:13:31.303Z,1022.24
2018-02-05T02:14:11.918Z,1022.22
2018-02-05T02:14:52.563Z,1022.24
2018-02-05T02:15:33.144Z,1022.24
2018-02-05T02:16:13.701Z,1022.22
2018-02-05T02:16:54.251Z,1022.25
2018-02-05T02:17:34.789Z,1022.25
2018-02-05T02:18:15.406Z,1022.27
2018-02-05T02:18:55.948Z,1022.3
2018-02-05T02:19:36.533Z,1022.31
2018-02-05T02:20:17.075Z,1022.3
2018-02-05T02:20:57.619Z,1022.29
2018-02-05T02:21:38.192Z,1022.33
2018-02-05T02:22:18.777Z,1022.32
2018-02-05T02:22:59.353Z,1022.36
2018-02-05T02:23:39.942Z,1022.36
2018-02-05T02:24:20.513Z,1022.36
2018-02-05T02:25:01.041Z,1022.39
2018-02-05T02:25:41.594Z,1022.39
2018-02-05T02:26:22.155Z,1022.38
2018-02-05T02:27:02.708Z,1022.38
2018-02-05T02:27:43.271Z,1022.36
2018-02-05T02:28:23.808Z,1022.39
2018-02-05T02:29:04.377Z,1022.33
2018-02-05T02:29:44.909Z,1022.36
2018-02-05T02:30:25.503Z,1022.38
2018-02-05T02:31:06.071Z,1022.34
2018-02-05T02:31:46.635Z,1022.37
2018-02-05T02:32:27.193Z,1022.36
2018-02-05T02:33:07.748Z,1022.39
2018-02-05T02:33:48.370Z,1022.41
2018-02-05T02:34:28.935Z,1022.42
2018-02-05T02:35:09.483Z,1022.39
2018-02-05T02:35:50.020Z,1022.41
2018-02-05T02:36:30.596Z,1022.45
2018-02-05T02:37:11.131Z,1022.47
2018-02-05T02:37:51.700Z,1022.52
2018-02-05T02:38:32.261Z,1022.47
2018-02-05T02:39:12.791Z,1022.47
2018-02-05T02:39:53.406Z,1022.47
2018-02-05T02:40:33.933Z,1022.48
2018-02-05T02:41:14.510Z,1022.48
2018-02-05T02:41:55.070Z,1022.45
2018-02-05T02:42:35.636Z,1022.49
2018-02-05T02:43:16.175Z,1022.43
2018-02-05T02:43:56.718Z,1022.47
2018-02-05T02:44:37.326Z,1022.42
2018-02-05T02:45:17.903Z,1022.43
2018-02-05T02:45:58.432Z,1022.44
2018-02-05T02:46:38.998Z,1022.45
2018-02-05T02:47:19.559Z,1022.48
2018-02-05T02:48:00.160Z,1022.44
2018-02-05T02:48:40.662Z,1022.49
2018-02-05T02:49:21.219Z,1022.5
2018-02-05T02:50:01.765Z,1022.52
2018-02-05T02:50:42.343Z,1022.55
2018-02-05T02:51:22.947Z,1022.57
2018-02-05T02:52:03.530Z,1022.56
2018-02-05T02:52:44.072Z,1022.58
2018-02-05T02:53:24.633Z,1022.52
2018-02-05T02:54:05.173Z,1022.59
2018-02-05T02:54:45.708Z,1022.57
2018-02-05T02:55:26.260Z,1022.56
2018-02-05T02:56:06.805Z,1022.59
2018-02-05T02:56:47.353Z,1022.63
2018-02-05T02:57:27.994Z,1022.63
2018-02-05T02:58:08.547Z,1022.62
2018-02-05T02:58:49.106Z,1022.64
2018-02-05T02:59:29.650Z,1022.63
2018-02-05T03:00:10.234Z,1022.61
2018-02-05T03:00:50.768Z,1022.62
2018-02-05T03:01:31.335Z,1022.63
2018-02-05T03:02:11.919Z,1022.67
2018-02-05T03:02:52.477Z,1022.65
2018-02-05T03:03:33.030Z,1022.63
2018-02-05T03:04:13.580Z,1022.63
2018-02-05T03:04:54.157Z,1022.61
2018-02-05T03:05:34.706Z,1022.66
2018-02-05T03:06:15.262Z,1022.63
2018-02-05T03:06:55.823Z,1022.6
2018-02-05T03:07:36.364Z,1022.65
2018-02-05T03:08:16.936Z,1022.66
2018-02-05T03:08:57.491Z,1022.66
2018-02-05T03:09:38.054Z,1022.69
2018-02-05T03:10:18.596Z,1022.7
2018-02-05T03:10:59.143Z,1022.74
2018-02-05T03:11:39.701Z,1022.69
2018-02-05T03:12:20.244Z,1022.74
2018-02-05T03:13:00.778Z,1022.73
2018-02-05T03:13:41.345Z,1022.72
2018-02-05T03:14:21.898Z,1022.73
2018-02-05T03:15:02.466Z,1022.75
2018-02-05T03:15:42.992Z,1022.74
2018-02-05T03:16:23.577Z,1022.76
2018-02-05T03:17:04.124Z,1022.8
2018-02-05T03:17:44.693Z,1022.81
2018-02-05T03:18:25.248Z,1022.8
2018-02-05T03:19:05.804Z,1022.84
2018-02-05T03:19:46.354Z,1022.78
2018-02-05T03:20:26.909Z,1022.79
2018-02-05T03:21:07.458Z,1022.8
2018-02-05T03:21:47.975Z,1022.79
2018-02-05T03:22:28.589Z,1022.81
2018-02-05T03:23:09.143Z,1022.78
2018-02-05T03:23:49.719Z,1022.79
2018-02-05T03:24:30.263Z,1022.81
2018-02-05T03:25:10.809Z,1022.83
2018-02-05T03:25:51.371Z,1022.81
2018-02-05T03:26:31.940Z,1022.77
2018-02-05T03:27:12.491Z,1022.77
2018-02-05T03:27:53.078Z,1022.78
2018-02-05T03:28:33.688Z,1022.83
2018-02-05T03:29:14.244Z,1022.83
2018-02-05T03:29:54.870Z,1022.82
2018-02-05T03:30:35.453Z,1022.84
2018-02-05T03:31:16.029Z,1022.82
2018-02-05T03:31:56.580Z,1022.84
2018-02-05T03:32:37.151Z,1022.85
2018-02-05T03:33:17.710Z,1022.87
2018-02-05T03:33:58.276Z,1022.84
2018-02-05T03:34:38.899Z,1022.82
2018-02-05T03:35:19.406Z,1022.85
2018-02-05T03:35:59.962Z,1022.89
2018-02-05T03:36:40.513Z,1022.86
2018-02-05T03:37:21.055Z,1022.88
2018-02-05T03:38:01.617Z,1022.92
2018-02-05T03:38:42.171Z,1022.87
2018-02-05T03:39:22.755Z,1022.91
2018-02-05T03:40:03.321Z,1022.92
2018-02-05T03:40:43.879Z,1022.92
2018-02-05T03:41:24.403Z,1022.9
2018-02-05T03:42:04.990Z,1022.92
2018-02-05T03:42:45.533Z,1022.9
2018-02-05T03:43:26.092Z,1022.9
2018-02-05T03:44:06.705Z,1022.9
2018-02-05T03:44:47.255Z,1022.9
2018-02-05T03:45:27.804Z,1022.93
2018-02-05T03:46:08.370Z,1022.91
2018-02-05T03:46:48.923Z,1022.98
2018-02-05T03:47:29.482Z,1022.97
2018-02-05T03:48:10.014Z,1022.97
2018-02-05T03:48:50.552Z,1022.98
2018-02-05T03:49:31.115Z,1023.02
2018-02-05T03:50:11.674Z,1023
2018-02-05T03:50:52.220Z,1022.98
2018-02-05T03:51:32.773Z,1022.98
2018-02-05T03:52:13.371Z,1023.01
2018-02-05T03:52:53.921Z,1023.01
2018-02-05T03:53:34.510Z,1023.02
2018-02-05T03:54:15.051Z,1023.06
2018-02-05T03:54:55.611Z,1023.08
2018-02-05T03:55:36.145Z,1023.1
2018-02-05T03:56:16.728Z,1023.08
2018-02-05T03:56:57.287Z,1023.06
2018-02-05T03:57:37.853Z,1023.04
2018-02-05T03:58:18.450Z,1023.05
2018-02-05T03:58:59.021Z,1023.09
2018-02-05T03:59:39.635Z,1023.08
2018-02-05T04:00:20.214Z,1023.11
2018-02-05T04:01:00.776Z,1023.07
2018-02-05T04:01:41.382Z,1023.1
2018-02-05T04:02:21.947Z,1023.09
2018-02-05T04:03:02.490Z,1023
2018-02-05T04:03:43.077Z,1023.04
2018-02-05T04:04:23.622Z,1023.07
2018-02-05T04:05:04.156Z,1023.05
2018-02-05T04:05:44.705Z,1023.04
2018-02-05T04:06:25.279Z,1023.07
2018-02-05T04:07:05.835Z,1023.12
2018-02-05T04:07:46.426Z,1023.05
2018-02-05T04:08:26.956Z,1023.07
2018-02-05T04:09:07.515Z,1023.1
2018-02-05T04:09:48.070Z,1023.08
2018-02-05T04:10:28.647Z,1023.06
2018-02-05T04:11:09.195Z,1023.13
2018-02-05T04:11:49.775Z,1023.1
2018-02-05T04:12:30.344Z,1023.1
2018-02-05T04:13:10.916Z,1023.11
2018-02-05T04:13:51.461Z,1023.14
2018-02-05T04:14:32.050Z,1023.17
2018-02-05T04:15:12.569Z,1023.09
2018-02-05T04:15:53.162Z,1023.15
2018-02-05T04:16:33.751Z,1023.17
2018-02-05T04:17:14.293Z,1023.17
2018-02-05T04:17:54.851Z,1023.13
2018-02-05T04:18:35.424Z,1023.15
2018-02-05T04:19:15.973Z,1023.17
2018-02-05T04:19:56.513Z,1023.15
2018-02-05T04:20:37.040Z,1023.19
2018-02-05T04:21:17.616Z,1023.18
2018-02-05T04:21:58.201Z,1023.18
2018-02-05T04:22:38.794Z,1023.18
2018-02-05T04:23:19.348Z,1023.18
2018-02-05T04:23:59.932Z,1023.19
2018-02-05T04:24:40.550Z,1023.19
2018-02-05T04:25:21.093Z,1023.15
2018-02-05T04:26:01.640Z,1023.19
2018-02-05T04:26:42.173Z,1023.21
2018-02-05T04:27:22.767Z,1023.25
2018-02-05T04:28:03.340Z,1023.26
2018-02-05T04:28:43.926Z,1023.17
2018-02-05T04:29:24.518Z,1023.2
2018-02-05T04:30:05.059Z,1023.21
2018-02-05T04:30:45.602Z,1023.23
2018-02-05T04:31:26.221Z,1023.23
2018-02-05T04:32:06.738Z,1023.24
2018-02-05T04:32:47.316Z,1023.25
2018-02-05T04:33:27.821Z,1023.28
2018-02-05T04:34:08.434Z,1023.29
2018-02-05T04:34:48.975Z,1023.26
2018-02-05T04:35:29.558Z,1023.21
2018-02-05T04:36:10.093Z,1023.26
2018-02-05T04:36:50.654Z,1023.24
2018-02-05T04:37:31.269Z,1023.27
2018-02-05T04:38:11.844Z,1023.29
2018-02-05T04:38:52.416Z,1023.29
2018-02-05T04:39:33.008Z,1023.29
2018-02-05T04:40:13.547Z,1023.3
2018-02-05T04:40:54.151Z,1023.27
2018-02-05T04:41:34.725Z,1023.32
2018-02-05T04:42:15.325Z,1023.36
2018-02-05T04:42:55.903Z,1023.34
2018-02-05T04:43:36.469Z,1023.35
2018-02-05T04:44:17.029Z,1023.33
2018-02-05T04:44:57.577Z,1023.33
2018-02-05T04:45:38.128Z,1023.35
2018-02-05T04:46:18.826Z,1023.33
2018-02-05T04:46:59.385Z,1023.32
2018-02-05T04:47:39.955Z,1023.38
2018-02-05T04:48:20.492Z,1023.37
2018-02-05T04:49:01.040Z,1023.41
2018-02-05T04:49:41.609Z,1023.42
2018-02-05T04:50:22.183Z,1023.4
2018-02-05T04:51:02.764Z,1023.4
2018-02-05T04:51:43.386Z,1023.42
2018-02-05T04:52:23.936Z,1023.41
2018-02-05T04:53:04.502Z,1023.42
2018-02-05T04:53:45.082Z,1023.41
2018-02-05T04:54:25.636Z,1023.44
2018-02-05T04:55:06.216Z,1023.43
2018-02-05T04:55:46.762Z,1023.45
2018-02-05T04:56:27.317Z,1023.48
2018-02-05T04:57:07.907Z,1023.52
2018-02-05T04:57:48.471Z,1023.49
2018-02-05T04:58:29.013Z,1023.5
2018-02-05T04:59:09.579Z,1023.56
2018-02-05T04:59:50.188Z,1023.52
2018-02-05T05:00:30.743Z,1023.55
2018-02-05T05:01:11.304Z,1023.54
2018-02-05T05:01:51.879Z,1023.57
2018-02-05T05:02:32.465Z,1023.55
2018-02-05T05:03:13.114Z,1023.52
2018-02-05T05:03:53.612Z,1023.53
2018-02-05T05:04:34.169Z,1023.54
2018-02-05T05:05:14.732Z,1023.48
2018-02-05T05:05:55.287Z,1023.46
2018-02-05T05:06:35.847Z,1023.5
2018-02-05T05:07:16.422Z,1023.55
2018-02-05T05:07:56.956Z,1023.53
2018-02-05T05:08:37.501Z,1023.5
2018-02-05T05:09:18.094Z,1023.59
2018-02-05T05:09:58.657Z,1023.57
2018-02-05T05:10:39.229Z,1023.54
2018-02-05T05:11:19.803Z,1023.55
2018-02-05T05:12:00.350Z,1023.59
2018-02-05T05:12:40.904Z,1023.55
2018-02-05T05:13:21.454Z,1023.56
2018-02-05T05:14:02.007Z,1023.57
2018-02-05T05:14:42.616Z,1023.55
2018-02-05T05:15:23.193Z,1023.57
2018-02-05T05:16:03.721Z,1023.54
2018-02-05T05:16:44.267Z,1023.59
2018-02-05T05:17:24.843Z,1023.56
2018-02-05T05:18:05.396Z,1023.5
2018-02-05T05:18:45.948Z,1023.51
2018-02-05T05:19:26.501Z,1023.54
2018-02-05T05:20:07.082Z,1023.55
2018-02-05T05:20:47.642Z,1023.53
2018-02-05T05:21:28.203Z,1023.54
2018-02-05T05:22:08.754Z,1023.47
2018-02-05T05:22:49.317Z,1023.5
2018-02-05T05:23:29.836Z,1023.51
2018-02-05T05:24:10.391Z,1023.56
2018-02-05T05:24:50.939Z,1023.54
2018-02-05T05:25:31.494Z,1023.52
2018-02-05T05:26:12.043Z,1023.53
2018-02-05T05:26:52.593Z,1023.51
2018-02-05T05:27:33.254Z,1023.54
2018-02-05T05:28:13.694Z,1023.58
2018-02-05T05:28:54.254Z,1023.55
2018-02-05T05:29:34.868Z,1023.55
2018-02-05T05:30:15.410Z,1023.52
2018-02-05T05:30:55.957Z,1023.52
2018-02-05T05:31:36.519Z,1023.58
2018-02-05T05:32:17.074Z,1023.56
2018-02-05T05:32:57.645Z,1023.55
2018-02-05T05:33:38.196Z,1023.58
2018-02-05T05:34:18.767Z,1023.62
2018-02-05T05:34:59.329Z,1023.52
2018-02-05T05:35:39.926Z,1023.53
2018-02-05T05:36:20.466Z,1023.53
2018-02-05T05:37:01.027Z,1023.56
2018-02-05T05:37:41.588Z,1023.58
2018-02-05T05:38:22.164Z,1023.58
2018-02-05T05:39:02.756Z,1023.6
2018-02-05T05:39:43.360Z,1023.59
2018-02-05T05:40:23.911Z,1023.56
2018-02-05T05:41:04.474Z,1023.59
2018-02-05T05:41:45.066Z,1023.6
2018-02-05T05:42:25.624Z,1023.56
2018-02-05T05:43:06.270Z,1023.61
2018-02-05T05:43:46.867Z,1023.65
2018-02-05T05:44:27.498Z,1023.57
2018-02-05T05:45:08.024Z,1023.6
2018-02-05T05:45:48.577Z,1023.63
2018-02-05T05:46:29.181Z,1023.63
2018-02-05T05:47:09.722Z,1023.67
2018-02-05T05:47:50.283Z,1023.65
2018-02-05T05:48:30.840Z,1023.67
2018-02-05T05:49:11.385Z,1023.67
2018-02-05T05:49:51.938Z,1023.68
2018-02-05T05:50:32.498Z,1023.7
2018-02-05T05:51:13.039Z,1023.7
2018-02-05T05:51:53.619Z,1023.72
2018-02-05T05:52:34.203Z,1023.73
2018-02-05T05:53:14.778Z,1023.69
2018-02-05T05:53:55.328Z,1023.69
2018-02-05T05:54:35.878Z,1023.69
2018-02-05T05:55:16.437Z,1023.71
2018-02-05T05:55:56.985Z,1023.72
2018-02-05T05:56:37.536Z,1023.72
2018-02-05T05:57:18.076Z,1023.72
2018-02-05T05:57:58.661Z,1023.72
2018-02-05T05:58:39.230Z,1023.73
2018-02-05T05:59:19.788Z,1023.71
2018-02-05T06:00:00.360Z,1023.74
2018-02-05T06:00:40.914Z,1023.72
2018-02-05T06:01:21.454Z,1023.74
2018-02-05T06:02:02.024Z,1023.72
2018-02-05T06:02:42.592Z,1023.75
2018-02-05T06:03:23.159Z,1023.75
2018-02-05T06:04:03.710Z,1023.76
2018-02-05T06:04:44.260Z,1023.74
2018-02-05T06:05:24.813Z,1023.76
2018-02-05T06:06:05.400Z,1023.77
2018-02-05T06:06:45.985Z,1023.75
2018-02-05T06:07:26.572Z,1023.77
2018-02-05T06:08:07.160Z,1023.75
2018-02-05T06:08:47.728Z,1023.77
2018-02-05T06:09:28.315Z,1023.79
2018-02-05T06:10:08.898Z,1023.79
2018-02-05T06:10:49.467Z,1023.77
2018-02-05T06:11:30.019Z,1023.79
2018-02-05T06:12:10.597Z,1023.81
2018-02-05T06:12:51.158Z,1023.79
2018-02-05T06:13:31.704Z,1023.79
2018-02-05T06:14:12.277Z,1023.81
2018-02-05T06:14:52.838Z,1023.83
2018-02-05T06:15:33.391Z,1023.83
2018-02-05T06:16:13.939Z,1023.81
2018-02-05T06:16:54.560Z,1023.82
2018-02-05T06:17:35.216Z,1023.84
2018-02-05T06:18:15.781Z,1023.83
2018-02-05T06:18:56.391Z,1023.84
2018-02-05T06:19:36.999Z,1023.89
2018-02-05T06:20:17.553Z,1023.87
2018-02-05T06:20:58.142Z,1023.89
2018-02-05T06:21:38.699Z,1023.9
2018-02-05T06:22:19.265Z,1023.9
2018-02-05T06:22:59.801Z,1023.91
2018-02-05T06:23:40.344Z,1023.9
2018-02-05T06:24:20.909Z,1023.85
2018-02-05T06:25:01.431Z,1023.88
2018-02-05T06:25:41.990Z,1023.83
2018-02-05T06:26:22.547Z,1023.85
2018-02-05T06:27:03.104Z,1023.87
2018-02-05T06:27:43.661Z,1023.87
2018-02-05T06:28:24.225Z,1023.86
2018-02-05T06:29:04.779Z,1023.87
2018-02-05T06:29:45.354Z,1023.89
2018-02-05T06:30:25.901Z,1023.91
2018-02-05T06:31:06.464Z,1023.9
2018-02-05T06:31:47.020Z,1023.93
2018-02-05T06:32:27.597Z,1023.9
2018-02-05T06:33:08.146Z,1023.91
2018-02-05T06:33:48.701Z,1023.92
2018-02-05T06:34:29.269Z,1023.91
2018-02-05T06:35:09.961Z,1023.95
2018-02-05T06:35:50.436Z,1023.96
2018-02-05T06:36:30.981Z,1023.95
2018-02-05T06:37:11.544Z,1023.98
2018-02-05T06:37:52.079Z,1023.95
2018-02-05T06:38:32.638Z,1023.97
2018-02-05T06:39:13.206Z,1024.04
2018-02-05T06:39:53.785Z,1024.07
2018-02-05T06:40:34.340Z,1024.07
2018-02-05T06:41:14.890Z,1024.07
2018-02-05T06:41:55.493Z,1024.02
2018-02-05T06:42:36.061Z,1024.07
2018-02-05T06:43:16.600Z,1024.05
2018-02-05T06:43:57.151Z,1024.04
2018-02-05T06:44:37.704Z,1024.12
2018-02-05T06:45:18.252Z,1024.11
2018-02-05T06:45:58.817Z,1024.11
2018-02-05T06:46:39.389Z,1024.12
2018-02-05T06:47:19.926Z,1024.13
2018-02-05T06:48:00.473Z,1024.18
2018-02-05T06:48:41.050Z,1024.17
2018-02-05T06:49:21.619Z,1024.18
2018-02-05T06:50:02.214Z,1024.2
2018-02-05T06:50:42.739Z,1024.2
2018-02-05T06:51:23.313Z,1024.2
2018-02-05T06:52:03.870Z,1024.19
2018-02-05T06:52:44.415Z,1024.23
2018-02-05T06:53:24.971Z,1024.24
2018-02-05T06:54:05.536Z,1024.22
2018-02-05T06:54:46.094Z,1024.2
2018-02-05T06:55:26.666Z,1024.21
2018-02-05T06:56:07.199Z,1024.23
2018-02-05T06:56:47.763Z,1024.25
2018-02-05T06:57:28.300Z,1024.24
2018-02-05T06:58:08.896Z,1024.22
2018-02-05T06:58:49.443Z,1024.22
2018-02-05T06:59:30.013Z,1024.23
2018-02-05T07:00:10.621Z,1024.24
2018-02-05T07:00:51.127Z,1024.27
2018-02-05T07:01:31.653Z,1024.22
2018-02-05T07:02:12.243Z,1024.23
2018-02-05T07:02:52.767Z,1024.21
2018-02-05T07:03:33.368Z,1024.25
2018-02-05T07:04:13.907Z,1024.27
2018-02-05T07:04:54.541Z,1024.23
2018-02-05T07:05:35.096Z,1024.24
2018-02-05T07:06:15.661Z,1024.21
2018-02-05T07:06:56.235Z,1024.25
2018-02-05T07:07:36.838Z,1024.23
2018-02-05T07:08:17.351Z,1024.23
2018-02-05T07:08:57.914Z,1024.24
2018-02-05T07:09:38.473Z,1024.2
2018-02-05T07:10:19.030Z,1024.24
2018-02-05T07:10:59.597Z,1024.25
2018-02-05T07:11:40.159Z,1024.27
2018-02-05T07:12:20.743Z,1024.25
2018-02-05T07:13:01.294Z,1024.23
2018-02-05T07:13:41.860Z,1024.23
2018-02-05T07:14:22.445Z,1024.21
2018-02-05T07:15:02.999Z,1024.23
2018-02-05T07:15:43.555Z,1024.21
2018-02-05T07:16:24.112Z,1024.22
2018-02-05T07:17:04.672Z,1024.22
2018-02-05T07:17:45.226Z,1024.22
2018-02-05T07:18:25.798Z,1024.21
2018-02-05T07:19:06.368Z,1024.19
2018-02-05T07:19:46.999Z,1024.26
2018-02-05T07:20:27.585Z,1024.22
2018-02-05T07:21:08.139Z,1024.27
2018-02-05T07:21:48.681Z,1024.29
2018-02-05T07:22:29.260Z,1024.29
2018-02-05T07:23:10.259Z,1024.35
2018-02-05T07:23:50.843Z,1024.41
2018-02-05T07:24:31.406Z,1024.4
2018-02-05T07:25:12.012Z,1024.42
2018-02-05T07:25:52.567Z,1024.42
2018-02-05T07:26:33.130Z,1024.43
2018-02-05T07:27:13.692Z,1024.45
2018-02-05T07:27:54.252Z,1024.43
2018-02-05T07:28:34.801Z,1024.45
2018-02-05T07:29:15.343Z,1024.49
2018-02-05T07:29:55.930Z,1024.47
2018-02-05T07:30:36.463Z,1024.46
2018-02-05T07:31:17.040Z,1024.46
2018-02-05T07:31:57.636Z,1024.46
2018-02-05T07:32:38.172Z,1024.43
2018-02-05T07:33:18.742Z,1024.47
2018-02-05T07:33:59.324Z,1024.46
2018-02-05T07:34:40.107Z,1024.46
2018-02-05T07:35:20.798Z,1024.47
2018-02-05T07:36:01.414Z,1024.48
2018-02-05T07:36:41.987Z,1024.53
2018-02-05T07:37:22.588Z,1024.53
2018-02-05T07:38:03.238Z,1024.51
2018-02-05T07:38:43.830Z,1024.52
2018-02-05T07:39:24.376Z,1024.54
2018-02-05T07:40:05.083Z,1024.5
2018-02-05T07:40:45.615Z,1024.51
2018-02-05T07:41:26.201Z,1024.51
2018-02-05T07:42:06.749Z,1024.52
2018-02-05T07:42:47.307Z,1024.55
2018-02-05T07:43:27.898Z,1024.54
2018-02-05T07:44:08.461Z,1024.48
2018-02-05T07:44:49.035Z,1024.48
2018-02-05T07:45:29.718Z,1024.5
2018-02-05T07:46:10.308Z,1024.49
2018-02-05T07:46:50.862Z,1024.49
2018-02-05T07:47:31.448Z,1024.5
2018-02-05T07:48:12.012Z,1024.49
2018-02-05T07:48:52.576Z,1024.41
2018-02-05T07:49:33.128Z,1024.49
2018-02-05T07:50:13.706Z,1024.52
2018-02-05T07:50:54.274Z,1024.48
2018-02-05T07:51:34.852Z,1024.52
2018-02-05T07:52:15.405Z,1024.49
2018-02-05T07:52:56.004Z,1024.5
2018-02-05T07:53:36.565Z,1024.5
2018-02-05T07:54:17.096Z,1024.48
2018-02-05T07:54:57.634Z,1024.51
2018-02-05T07:55:38.249Z,1024.53
2018-02-05T07:56:18.864Z,1024.5
2018-02-05T07:56:59.479Z,1024.52
2018-02-05T07:57:40.041Z,1024.52
2018-02-05T07:58:20.578Z,1024.58
2018-02-05T07:59:01.145Z,1024.53
2018-02-05T07:59:41.656Z,1024.52
2018-02-05T08:00:22.180Z,1024.54
2018-02-05T08:01:02.765Z,1024.52
2018-02-05T08:01:43.380Z,1024.51
2018-02-05T08:02:23.956Z,1024.54
2018-02-05T08:03:04.496Z,1024.57
2018-02-05T08:03:45.090Z,1024.61
2018-02-05T08:04:25.664Z,1024.58
2018-02-05T08:05:06.232Z,1024.58
2018-02-05T08:05:46.831Z,1024.59
2018-02-05T08:06:27.410Z,1024.59
2018-02-05T08:07:07.942Z,1024.66
2018-02-05T08:07:48.499Z,1024.62
2018-02-05T08:08:29.039Z,1024.6
2018-02-05T08:09:09.606Z,1024.58
2018-02-05T08:09:50.149Z,1024.63
2018-02-05T08:10:30.695Z,1024.63
2018-02-05T08:11:11.246Z,1024.6
2018-02-05T08:11:51.826Z,1024.62
2018-02-05T08:12:32.386Z,1024.58